sensor_id;sensor_type;location;lat;lon;timestamp;pressure;altitude;pressure_sealevel;temperature;humidity
3544;BME280;1786;52.870;9.578;2023-06-01T00:00:59;101309.75;;;23.15;46.07
3544;BME280;1786;52.870;9.578;2023-06-01T00:03:27;101317.97;;;23.48;45.72
3544;BME280;1786;52.870;9.578;2023-06-01T00:05:56;101315.94;;;23.42;46.29
3544;BME280;1786;52.870;9.578;2023-06-01T00:08:23;101303.72;;;22.95;46.79
3544;BME280;1786;52.870;9.578;2023-06-01T00:10:49;101306.72;;;22.84;47.44
3544;BME280;1786;52.870;9.578;2023-06-01T00:13:16;101317.28;;;23.38;46.51
3544;BME280;1786;52.870;9.578;2023-06-01T00:15:43;101296.75;;;22.32;48.03
3544;BME280;1786;52.870;9.578;2023-06-01T00:18:10;101311.81;;;22.07;48.80
3544;BME280;1786;52.870;9.578;2023-06-01T00:20:39;101310.59;;;22.01;49.16
3544;BME280;1786;52.870;9.578;2023-06-01T00:23:06;101307.97;;;22.10;48.93
3544;BME280;1786;52.870;9.578;2023-06-01T00:25:35;101299.88;;;22.63;47.77
3544;BME280;1786;52.870;9.578;2023-06-01T00:28:01;101303.38;;;23.16;46.59
3544;BME280;1786;52.870;9.578;2023-06-01T00:30:29;101309.88;;;23.48;46.34
3544;BME280;1786;52.870;9.578;2023-06-01T00:32:56;101301.81;;;22.79;47.59
3544;BME280;1786;52.870;9.578;2023-06-01T00:35:23;101297.47;;;22.86;47.20
3544;BME280;1786;52.870;9.578;2023-06-01T00:37:50;101290.00;;;22.80;47.73
3544;BME280;1786;52.870;9.578;2023-06-01T00:40:18;101301.53;;;22.64;47.59
3544;BME280;1786;52.870;9.578;2023-06-01T00:42:45;101301.22;;;22.67;48.10
3544;BME280;1786;52.870;9.578;2023-06-01T00:45:12;101306.84;;;23.43;46.38
3544;BME280;1786;52.870;9.578;2023-06-01T00:47:40;101296.75;;;23.53;45.91
3544;BME280;1786;52.870;9.578;2023-06-01T00:50:10;101291.44;;;23.27;46.86
3544;BME280;1786;52.870;9.578;2023-06-01T00:52:37;101297.88;;;23.93;45.98
3544;BME280;1786;52.870;9.578;2023-06-01T00:55:05;101300.41;;;23.94;45.78
3544;BME280;1786;52.870;9.578;2023-06-01T00:57:34;101310.00;;;23.81;45.51
3544;BME280;1786;52.870;9.578;2023-06-01T01:00:04;101308.22;;;23.55;46.57
3544;BME280;1786;52.870;9.578;2023-06-01T01:02:39;101302.91;;;23.80;45.74
3544;BME280;1786;52.870;9.578;2023-06-01T01:05:08;101295.47;;;23.73;46.20
3544;BME280;1786;52.870;9.578;2023-06-01T01:13:00;101301.78;;;24.15;45.75
3544;BME280;1786;52.870;9.578;2023-06-01T01:18:33;101300.47;;;22.57;48.32
3544;BME280;1786;52.870;9.578;2023-06-01T01:21:03;101288.34;;;22.17;48.85
3544;BME280;1786;52.870;9.578;2023-06-01T01:24:05;101290.25;;;22.61;48.62
3544;BME280;1786;52.870;9.578;2023-06-01T01:26:50;101289.13;;;22.98;48.01
3544;BME280;1786;52.870;9.578;2023-06-01T01:29:21;101288.53;;;23.12;47.84
3544;BME280;1786;52.870;9.578;2023-06-01T01:31:50;101296.84;;;23.86;46.27
3544;BME280;1786;52.870;9.578;2023-06-01T01:34:19;101301.41;;;23.77;46.54
3544;BME280;1786;52.870;9.578;2023-06-01T01:36:46;101294.88;;;23.53;47.08
3544;BME280;1786;52.870;9.578;2023-06-01T01:39:14;101292.28;;;23.27;46.97
3544;BME280;1786;52.870;9.578;2023-06-01T01:41:41;101286.44;;;23.40;47.27
3544;BME280;1786;52.870;9.578;2023-06-01T01:44:08;101296.41;;;22.79;48.20
3544;BME280;1786;52.870;9.578;2023-06-01T01:46:51;101292.41;;;22.57;49.02
3544;BME280;1786;52.870;9.578;2023-06-01T01:49:28;101292.44;;;22.39;49.05
3544;BME280;1786;52.870;9.578;2023-06-01T01:52:05;101291.22;;;22.34;49.06
3544;BME280;1786;52.870;9.578;2023-06-01T01:54:42;101283.78;;;21.92;49.93
3544;BME280;1786;52.870;9.578;2023-06-01T01:57:09;101276.69;;;22.09;49.85
3544;BME280;1786;52.870;9.578;2023-06-01T01:59:39;101286.53;;;22.62;49.11
3544;BME280;1786;52.870;9.578;2023-06-01T02:02:06;101282.72;;;22.20;49.78
3544;BME280;1786;52.870;9.578;2023-06-01T02:04:38;101281.47;;;21.79;49.95
3544;BME280;1786;52.870;9.578;2023-06-01T02:07:06;101280.88;;;21.85;50.35
3544;BME280;1786;52.870;9.578;2023-06-01T02:09:34;101285.53;;;22.19;49.99
3544;BME280;1786;52.870;9.578;2023-06-01T02:12:01;101272.69;;;21.77;50.55
3544;BME280;1786;52.870;9.578;2023-06-01T02:14:30;101270.63;;;22.07;49.82
3544;BME280;1786;52.870;9.578;2023-06-01T02:16:57;101276.63;;;22.00;49.68
3544;BME280;1786;52.870;9.578;2023-06-01T02:19:25;101278.09;;;22.13;49.36
3544;BME280;1786;52.870;9.578;2023-06-01T02:21:51;101271.00;;;22.30;48.71
3544;BME280;1786;52.870;9.578;2023-06-01T02:24:18;101265.41;;;22.23;49.29
3544;BME280;1786;52.870;9.578;2023-06-01T02:26:46;101267.09;;;22.06;49.14
3544;BME280;1786;52.870;9.578;2023-06-01T02:29:14;101263.41;;;21.89;49.46
3544;BME280;1786;52.870;9.578;2023-06-01T02:31:41;101267.31;;;22.57;48.70
3544;BME280;1786;52.870;9.578;2023-06-01T02:34:09;101271.38;;;22.95;47.93
3544;BME280;1786;52.870;9.578;2023-06-01T02:36:36;101258.09;;;22.94;48.09
3544;BME280;1786;52.870;9.578;2023-06-01T02:39:02;101262.94;;;22.56;48.16
3544;BME280;1786;52.870;9.578;2023-06-01T02:41:29;101266.25;;;22.50;48.46
3544;BME280;1786;52.870;9.578;2023-06-01T02:43:56;101263.19;;;22.44;48.65
3544;BME280;1786;52.870;9.578;2023-06-01T02:46:24;101250.81;;;22.60;48.52
3544;BME280;1786;52.870;9.578;2023-06-01T02:48:51;101248.63;;;22.89;47.67
3544;BME280;1786;52.870;9.578;2023-06-01T02:51:19;101262.78;;;23.85;46.05
3544;BME280;1786;52.870;9.578;2023-06-01T02:53:49;101260.75;;;23.87;46.28
3544;BME280;1786;52.870;9.578;2023-06-01T02:56:16;101263.13;;;23.98;45.63
3544;BME280;1786;52.870;9.578;2023-06-01T02:58:56;101258.06;;;23.95;45.71
3544;BME280;1786;52.870;9.578;2023-06-01T03:01:27;101259.75;;;24.12;45.26
3544;BME280;1786;52.870;9.578;2023-06-01T03:03:54;101264.72;;;23.50;46.53
3544;BME280;1786;52.870;9.578;2023-06-01T03:06:21;101252.19;;;23.32;46.81
3544;BME280;1786;52.870;9.578;2023-06-01T03:09:09;101254.19;;;23.89;45.92
3544;BME280;1786;52.870;9.578;2023-06-01T03:11:52;101251.59;;;23.71;45.94
3544;BME280;1786;52.870;9.578;2023-06-01T03:14:20;101249.75;;;23.13;46.63
3544;BME280;1786;52.870;9.578;2023-06-01T03:16:47;101252.25;;;23.49;46.65
3544;BME280;1786;52.870;9.578;2023-06-01T03:19:22;101251.00;;;22.93;47.19
3544;BME280;1786;52.870;9.578;2023-06-01T03:21:52;101252.44;;;23.13;46.85
3544;BME280;1786;52.870;9.578;2023-06-01T03:24:22;101249.41;;;23.08;46.77
3544;BME280;1786;52.870;9.578;2023-06-01T03:26:58;101251.53;;;23.39;45.77
3544;BME280;1786;52.870;9.578;2023-06-01T03:29:27;101251.53;;;22.18;47.64
3544;BME280;1786;52.870;9.578;2023-06-01T03:31:53;101237.31;;;21.90;48.42
3544;BME280;1786;52.870;9.578;2023-06-01T03:34:22;101238.00;;;22.10;48.02
3544;BME280;1786;52.870;9.578;2023-06-01T03:36:48;101238.41;;;21.79;48.46
3544;BME280;1786;52.870;9.578;2023-06-01T03:39:16;101244.72;;;22.23;48.23
3544;BME280;1786;52.870;9.578;2023-06-01T03:41:43;101239.84;;;22.27;47.93
3544;BME280;1786;52.870;9.578;2023-06-01T03:44:11;101245.31;;;22.96;46.66
3544;BME280;1786;52.870;9.578;2023-06-01T03:46:39;101238.78;;;22.72;46.66
3544;BME280;1786;52.870;9.578;2023-06-01T03:49:06;101255.16;;;23.72;45.07
3544;BME280;1786;52.870;9.578;2023-06-01T03:51:33;101255.03;;;23.90;45.04
3544;BME280;1786;52.870;9.578;2023-06-01T03:54:00;101252.84;;;24.02;44.18
3544;BME280;1786;52.870;9.578;2023-06-01T03:56:27;101249.97;;;23.95;44.34
3544;BME280;1786;52.870;9.578;2023-06-01T03:58:57;101252.81;;;23.85;44.94
3544;BME280;1786;52.870;9.578;2023-06-01T04:01:24;101255.19;;;24.46;44.19
3544;BME280;1786;52.870;9.578;2023-06-01T04:03:56;101248.50;;;24.81;43.63
3544;BME280;1786;52.870;9.578;2023-06-01T04:06:23;101243.84;;;25.06;43.48
3544;BME280;1786;52.870;9.578;2023-06-01T04:08:51;101249.25;;;24.34;44.12
3544;BME280;1786;52.870;9.578;2023-06-01T04:11:22;101254.69;;;23.93;44.80
3544;BME280;1786;52.870;9.578;2023-06-01T04:13:50;101244.31;;;23.47;44.73
3544;BME280;1786;52.870;9.578;2023-06-01T04:16:18;101249.22;;;23.60;45.03
3544;BME280;1786;52.870;9.578;2023-06-01T04:18:45;101246.44;;;23.27;45.06
3544;BME280;1786;52.870;9.578;2023-06-01T04:21:17;101244.81;;;23.51;44.67
3544;BME280;1786;52.870;9.578;2023-06-01T04:23:44;101233.13;;;22.83;45.56
3544;BME280;1786;52.870;9.578;2023-06-01T04:26:13;101235.50;;;22.86;45.74
3544;BME280;1786;52.870;9.578;2023-06-01T04:28:40;101236.28;;;23.13;45.10
3544;BME280;1786;52.870;9.578;2023-06-01T04:31:14;101244.00;;;23.08;45.32
3544;BME280;1786;52.870;9.578;2023-06-01T04:33:46;101234.47;;;22.53;45.96
3544;BME280;1786;52.870;9.578;2023-06-01T04:36:23;101232.03;;;22.68;46.02
3544;BME280;1786;52.870;9.578;2023-06-01T04:38:53;101228.59;;;22.92;45.68
3544;BME280;1786;52.870;9.578;2023-06-01T04:41:22;101221.47;;;23.17;45.37
3544;BME280;1786;52.870;9.578;2023-06-01T04:43:50;101224.44;;;22.98;45.37
3544;BME280;1786;52.870;9.578;2023-06-01T04:46:20;101226.19;;;23.15;45.33
3544;BME280;1786;52.870;9.578;2023-06-01T04:48:48;101219.66;;;22.83;45.54
3544;BME280;1786;52.870;9.578;2023-06-01T04:51:14;101221.81;;;23.22;45.10
3544;BME280;1786;52.870;9.578;2023-06-01T04:53:46;101228.75;;;23.25;45.09
3544;BME280;1786;52.870;9.578;2023-06-01T04:56:18;101235.19;;;23.48;44.54
3544;BME280;1786;52.870;9.578;2023-06-01T04:58:46;101223.91;;;23.53;44.25
3544;BME280;1786;52.870;9.578;2023-06-01T05:01:17;101225.31;;;22.98;45.31
3544;BME280;1786;52.870;9.578;2023-06-01T05:03:45;101230.31;;;23.44;44.88
3544;BME280;1786;52.870;9.578;2023-06-01T05:06:14;101218.75;;;23.92;43.91
3544;BME280;1786;52.870;9.578;2023-06-01T05:08:42;101217.19;;;23.65;44.52
3544;BME280;1786;52.870;9.578;2023-06-01T05:11:09;101205.16;;;23.19;45.13
3544;BME280;1786;52.870;9.578;2023-06-01T05:13:38;101208.97;;;22.39;46.45
3544;BME280;1786;52.870;9.578;2023-06-01T05:16:06;101207.78;;;22.16;47.00
3544;BME280;1786;52.870;9.578;2023-06-01T05:18:35;101203.38;;;22.15;46.87
3544;BME280;1786;52.870;9.578;2023-06-01T05:21:02;101209.84;;;22.22;46.91
3544;BME280;1786;52.870;9.578;2023-06-01T05:23:29;101211.22;;;22.78;46.56
3544;BME280;1786;52.870;9.578;2023-06-01T05:25:58;101207.84;;;22.50;46.48
3544;BME280;1786;52.870;9.578;2023-06-01T05:28:33;101218.06;;;22.99;45.82
3544;BME280;1786;52.870;9.578;2023-06-01T05:31:04;101220.22;;;23.70;44.84
3544;BME280;1786;52.870;9.578;2023-06-01T05:33:36;101214.34;;;23.08;45.76
3544;BME280;1786;52.870;9.578;2023-06-01T05:36:04;101220.09;;;23.88;44.39
3544;BME280;1786;52.870;9.578;2023-06-01T05:38:30;101216.72;;;24.03;44.09
3544;BME280;1786;52.870;9.578;2023-06-01T05:40:58;101210.09;;;24.22;43.89
3544;BME280;1786;52.870;9.578;2023-06-01T05:43:25;101208.09;;;23.91;44.09
3544;BME280;1786;52.870;9.578;2023-06-01T05:45:51;101215.84;;;24.18;43.72
3544;BME280;1786;52.870;9.578;2023-06-01T05:48:18;101217.88;;;24.08;44.31
3544;BME280;1786;52.870;9.578;2023-06-01T05:50:52;101213.78;;;24.53;43.53
3544;BME280;1786;52.870;9.578;2023-06-01T05:53:19;101221.19;;;24.68;43.54
3544;BME280;1786;52.870;9.578;2023-06-01T05:55:45;101216.94;;;24.73;43.04
3544;BME280;1786;52.870;9.578;2023-06-01T05:58:12;101220.44;;;24.02;43.87
3544;BME280;1786;52.870;9.578;2023-06-01T06:00:39;101223.72;;;23.38;44.92
3544;BME280;1786;52.870;9.578;2023-06-01T06:03:06;101211.38;;;23.27;44.75
3544;BME280;1786;52.870;9.578;2023-06-01T06:05:33;101219.88;;;23.65;44.50
3544;BME280;1786;52.870;9.578;2023-06-01T06:08:02;101228.00;;;23.98;43.68
3544;BME280;1786;52.870;9.578;2023-06-01T06:10:30;101224.50;;;23.89;43.97
3544;BME280;1786;52.870;9.578;2023-06-01T06:12:56;101223.63;;;23.72;44.56
3544;BME280;1786;52.870;9.578;2023-06-01T06:15:23;101216.84;;;23.68;44.70
3544;BME280;1786;52.870;9.578;2023-06-01T06:17:50;101222.28;;;23.77;44.41
3544;BME280;1786;52.870;9.578;2023-06-01T06:20:17;101218.91;;;23.74;44.79
3544;BME280;1786;52.870;9.578;2023-06-01T06:22:51;101218.69;;;23.51;44.68
3544;BME280;1786;52.870;9.578;2023-06-01T06:25:19;101216.38;;;23.81;44.13
3544;BME280;1786;52.870;9.578;2023-06-01T06:27:47;101214.81;;;23.54;44.26
3544;BME280;1786;52.870;9.578;2023-06-01T06:30:14;101213.94;;;23.29;45.06
3544;BME280;1786;52.870;9.578;2023-06-01T06:32:41;101210.19;;;23.22;45.19
3544;BME280;1786;52.870;9.578;2023-06-01T06:35:08;101213.13;;;23.53;44.98
3544;BME280;1786;52.870;9.578;2023-06-01T06:37:40;101215.88;;;24.02;43.89
3544;BME280;1786;52.870;9.578;2023-06-01T06:40:07;101212.97;;;23.71;44.47
3544;BME280;1786;52.870;9.578;2023-06-01T06:42:34;101212.47;;;23.67;44.11
3544;BME280;1786;52.870;9.578;2023-06-01T06:45:02;101218.84;;;23.50;45.04
3544;BME280;1786;52.870;9.578;2023-06-01T06:47:29;101208.75;;;24.26;43.63
3544;BME280;1786;52.870;9.578;2023-06-01T06:49:56;101212.66;;;23.98;43.79
3544;BME280;1786;52.870;9.578;2023-06-01T06:52:23;101214.00;;;23.78;44.09
3544;BME280;1786;52.870;9.578;2023-06-01T06:54:50;101213.50;;;23.83;43.98
3544;BME280;1786;52.870;9.578;2023-06-01T06:57:17;101220.91;;;24.22;43.43
3544;BME280;1786;52.870;9.578;2023-06-01T06:59:44;101220.22;;;24.28;43.66
3544;BME280;1786;52.870;9.578;2023-06-01T07:02:11;101212.94;;;25.00;42.67
3544;BME280;1786;52.870;9.578;2023-06-01T07:04:39;101211.94;;;24.46;43.33
3544;BME280;1786;52.870;9.578;2023-06-01T07:07:06;101216.84;;;24.98;42.51
3544;BME280;1786;52.870;9.578;2023-06-01T07:09:33;101213.06;;;25.07;42.33
3544;BME280;1786;52.870;9.578;2023-06-01T07:12:00;101217.47;;;24.44;43.26
3544;BME280;1786;52.870;9.578;2023-06-01T07:14:27;101220.75;;;24.87;42.85
3544;BME280;1786;52.870;9.578;2023-06-01T07:16:54;101220.97;;;25.25;42.28
3544;BME280;1786;52.870;9.578;2023-06-01T07:19:20;101221.81;;;24.78;42.55
3544;BME280;1786;52.870;9.578;2023-06-01T07:21:48;101216.66;;;24.99;42.23
3544;BME280;1786;52.870;9.578;2023-06-01T07:24:18;101216.16;;;25.58;42.29
3544;BME280;1786;52.870;9.578;2023-06-01T07:26:45;101211.94;;;25.79;41.76
3544;BME280;1786;52.870;9.578;2023-06-01T07:29:12;101217.91;;;25.97;40.87
3544;BME280;1786;52.870;9.578;2023-06-01T07:31:41;101213.19;;;26.14;40.49
3544;BME280;1786;52.870;9.578;2023-06-01T07:34:09;101218.09;;;25.96;41.50
3544;BME280;1786;52.870;9.578;2023-06-01T07:36:36;101217.59;;;26.30;40.49
3544;BME280;1786;52.870;9.578;2023-06-01T07:39:04;101216.69;;;25.77;41.33
3544;BME280;1786;52.870;9.578;2023-06-01T07:41:35;101221.31;;;26.14;41.00
3544;BME280;1786;52.870;9.578;2023-06-01T07:44:02;101220.25;;;26.53;40.55
3544;BME280;1786;52.870;9.578;2023-06-01T07:46:29;101219.53;;;26.74;39.95
3544;BME280;1786;52.870;9.578;2023-06-01T07:48:56;101224.16;;;27.10;39.84
3544;BME280;1786;52.870;9.578;2023-06-01T07:51:23;101217.38;;;26.02;40.51
3544;BME280;1786;52.870;9.578;2023-06-01T07:53:50;101216.13;;;26.42;40.75
3544;BME280;1786;52.870;9.578;2023-06-01T07:56:17;101217.59;;;26.30;40.60
3544;BME280;1786;52.870;9.578;2023-06-01T07:58:45;101209.97;;;26.63;39.91
3544;BME280;1786;52.870;9.578;2023-06-01T08:01:12;101222.66;;;27.07;39.61
3544;BME280;1786;52.870;9.578;2023-06-01T08:03:42;101219.78;;;26.94;39.50
3544;BME280;1786;52.870;9.578;2023-06-01T08:06:09;101223.00;;;26.15;40.71
3544;BME280;1786;52.870;9.578;2023-06-01T08:08:38;101223.72;;;26.76;40.34
3544;BME280;1786;52.870;9.578;2023-06-01T08:11:06;101218.09;;;26.63;40.88
3544;BME280;1786;52.870;9.578;2023-06-01T08:13:34;101212.28;;;26.37;41.12
3544;BME280;1786;52.870;9.578;2023-06-01T08:16:02;101214.22;;;26.28;41.36
3544;BME280;1786;52.870;9.578;2023-06-01T08:18:30;101213.50;;;26.49;40.84
3544;BME280;1786;52.870;9.578;2023-06-01T08:20:57;101205.50;;;26.70;41.04
3544;BME280;1786;52.870;9.578;2023-06-01T08:23:24;101212.03;;;26.76;40.53
3544;BME280;1786;52.870;9.578;2023-06-01T08:25:51;101207.91;;;26.65;39.94
3544;BME280;1786;52.870;9.578;2023-06-01T08:28:17;101209.13;;;26.77;40.02
3544;BME280;1786;52.870;9.578;2023-06-01T08:30:44;101207.50;;;26.98;40.07
3544;BME280;1786;52.870;9.578;2023-06-01T08:33:11;101203.97;;;26.97;39.41
3544;BME280;1786;52.870;9.578;2023-06-01T08:35:38;101217.22;;;27.07;39.16
3544;BME280;1786;52.870;9.578;2023-06-01T08:38:09;101206.09;;;27.02;39.17
3544;BME280;1786;52.870;9.578;2023-06-01T08:40:36;101206.94;;;26.43;39.81
3544;BME280;1786;52.870;9.578;2023-06-01T08:45:33;101206.75;;;27.19;39.46
3544;BME280;1786;52.870;9.578;2023-06-01T08:48:01;101206.91;;;27.54;39.21
3544;BME280;1786;52.870;9.578;2023-06-01T08:50:29;101206.91;;;27.75;38.86
3544;BME280;1786;52.870;9.578;2023-06-01T08:52:57;101212.13;;;27.34;39.17
3544;BME280;1786;52.870;9.578;2023-06-01T08:55:25;101206.06;;;27.32;39.09
3544;BME280;1786;52.870;9.578;2023-06-01T08:57:53;101211.31;;;27.18;39.28
3544;BME280;1786;52.870;9.578;2023-06-01T09:00:20;101205.06;;;27.18;38.98
3544;BME280;1786;52.870;9.578;2023-06-01T09:02:48;101210.47;;;27.54;38.65
3544;BME280;1786;52.870;9.578;2023-06-01T09:05:16;101207.75;;;27.76;38.41
3544;BME280;1786;52.870;9.578;2023-06-01T09:07:44;101206.19;;;27.45;38.94
3544;BME280;1786;52.870;9.578;2023-06-01T09:10:11;101216.44;;;27.65;38.70
3544;BME280;1786;52.870;9.578;2023-06-01T09:12:38;101199.75;;;27.68;38.44
3544;BME280;1786;52.870;9.578;2023-06-01T09:15:18;101204.59;;;27.51;38.75
3544;BME280;1786;52.870;9.578;2023-06-01T09:17:47;101199.78;;;27.16;39.51
3544;BME280;1786;52.870;9.578;2023-06-01T09:20:22;101201.03;;;27.50;38.98
3544;BME280;1786;52.870;9.578;2023-06-01T09:22:50;101200.38;;;27.48;38.91
3544;BME280;1786;52.870;9.578;2023-06-01T09:25:23;101205.81;;;27.48;38.58
3544;BME280;1786;52.870;9.578;2023-06-01T09:27:52;101196.75;;;27.84;38.42
3544;BME280;1786;52.870;9.578;2023-06-01T09:30:21;101198.13;;;28.23;37.52
3544;BME280;1786;52.870;9.578;2023-06-01T09:32:48;101191.59;;;28.45;37.64
3544;BME280;1786;52.870;9.578;2023-06-01T09:35:36;101193.38;;;28.03;37.88
3544;BME280;1786;52.870;9.578;2023-06-01T09:38:03;101192.88;;;27.50;38.90
3544;BME280;1786;52.870;9.578;2023-06-01T09:40:33;101183.38;;;27.61;38.11
3544;BME280;1786;52.870;9.578;2023-06-01T09:43:01;101183.44;;;27.68;38.14
3544;BME280;1786;52.870;9.578;2023-06-01T09:45:30;101182.53;;;27.03;39.40
3544;BME280;1786;52.870;9.578;2023-06-01T09:48:18;101177.38;;;26.71;39.29
3544;BME280;1786;52.870;9.578;2023-06-01T09:50:45;101171.97;;;26.93;39.39
3544;BME280;1786;52.870;9.578;2023-06-01T09:53:12;101172.84;;;26.79;39.70
3544;BME280;1786;52.870;9.578;2023-06-01T09:55:58;101168.00;;;26.74;39.40
3544;BME280;1786;52.870;9.578;2023-06-01T09:58:26;101170.78;;;26.81;39.99
3544;BME280;1786;52.870;9.578;2023-06-01T10:00:53;101170.34;;;27.13;39.80
3544;BME280;1786;52.870;9.578;2023-06-01T10:03:21;101172.25;;;27.77;38.66
3544;BME280;1786;52.870;9.578;2023-06-01T10:05:49;101170.47;;;28.47;37.59
3544;BME280;1786;52.870;9.578;2023-06-01T10:08:18;101171.38;;;28.26;37.43
3544;BME280;1786;52.870;9.578;2023-06-01T10:10:48;101159.59;;;28.47;37.32
3544;BME280;1786;52.870;9.578;2023-06-01T10:13:16;101174.66;;;28.91;36.24
3544;BME280;1786;52.870;9.578;2023-06-01T10:15:43;101174.69;;;28.98;36.96
3544;BME280;1786;52.870;9.578;2023-06-01T10:18:11;101163.09;;;28.41;36.98
3544;BME280;1786;52.870;9.578;2023-06-01T10:20:38;101156.50;;;28.57;36.80
3544;BME280;1786;52.870;9.578;2023-06-01T10:23:06;101163.41;;;29.08;37.00
3544;BME280;1786;52.870;9.578;2023-06-01T10:25:51;101157.53;;;28.50;36.49
3544;BME280;1786;52.870;9.578;2023-06-01T10:28:19;101158.78;;;28.19;37.21
3544;BME280;1786;52.870;9.578;2023-06-01T10:33:53;101156.25;;;28.94;36.89
3544;BME280;1786;52.870;9.578;2023-06-01T10:36:20;101155.34;;;28.73;36.86
3544;BME280;1786;52.870;9.578;2023-06-01T10:38:47;101152.06;;;28.15;37.70
3544;BME280;1786;52.870;9.578;2023-06-01T10:41:29;101143.84;;;28.36;37.56
3544;BME280;1786;52.870;9.578;2023-06-01T10:43:57;101147.31;;;27.46;38.32
3544;BME280;1786;52.870;9.578;2023-06-01T10:48:59;101147.75;;;28.62;37.57
3544;BME280;1786;52.870;9.578;2023-06-01T10:51:26;101142.06;;;28.22;37.36
3544;BME280;1786;52.870;9.578;2023-06-01T10:53:54;101143.75;;;29.12;36.76
3544;BME280;1786;52.870;9.578;2023-06-01T10:56:23;101148.19;;;29.20;37.04
3544;BME280;1786;52.870;9.578;2023-06-01T11:01:44;101138.41;;;29.66;35.88
3544;BME280;1786;52.870;9.578;2023-06-01T11:04:12;101136.31;;;29.81;36.06
3544;BME280;1786;52.870;9.578;2023-06-01T11:06:41;101139.00;;;29.54;36.92
3544;BME280;1786;52.870;9.578;2023-06-01T11:09:10;101133.16;;;29.97;35.71
3544;BME280;1786;52.870;9.578;2023-06-01T11:14:25;101129.53;;;29.10;36.38
3544;BME280;1786;52.870;9.578;2023-06-01T11:16:53;101138.34;;;29.46;35.31
3544;BME280;1786;52.870;9.578;2023-06-01T11:19:23;101133.34;;;29.96;35.62
3544;BME280;1786;52.870;9.578;2023-06-01T11:21:56;101128.91;;;30.22;35.33
3544;BME280;1786;52.870;9.578;2023-06-01T11:24:36;101135.41;;;30.79;34.07
3544;BME280;1786;52.870;9.578;2023-06-01T11:27:07;101132.56;;;30.60;33.21
3544;BME280;1786;52.870;9.578;2023-06-01T11:29:35;101124.38;;;30.67;33.62
3544;BME280;1786;52.870;9.578;2023-06-01T11:32:04;101124.31;;;30.87;34.04
3544;BME280;1786;52.870;9.578;2023-06-01T11:34:42;101129.88;;;30.54;33.75
3544;BME280;1786;52.870;9.578;2023-06-01T11:37:15;101120.84;;;30.53;33.61
3544;BME280;1786;52.870;9.578;2023-06-01T11:39:42;101125.66;;;30.65;34.13
3544;BME280;1786;52.870;9.578;2023-06-01T11:42:14;101125.72;;;30.45;33.99
3544;BME280;1786;52.870;9.578;2023-06-01T11:44:43;101112.16;;;30.83;33.80
3544;BME280;1786;52.870;9.578;2023-06-01T11:47:11;101126.16;;;31.25;33.79
3544;BME280;1786;52.870;9.578;2023-06-01T11:49:46;101128.34;;;31.48;33.32
3544;BME280;1786;52.870;9.578;2023-06-01T11:52:18;101118.28;;;31.10;32.77
3544;BME280;1786;52.870;9.578;2023-06-01T11:54:46;101127.38;;;31.29;33.70
3544;BME280;1786;52.870;9.578;2023-06-01T11:57:14;101128.28;;;31.23;33.08
3544;BME280;1786;52.870;9.578;2023-06-01T12:02:28;101127.25;;;31.49;33.47
3544;BME280;1786;52.870;9.578;2023-06-01T12:07:25;101120.41;;;30.56;33.47
3544;BME280;1786;52.870;9.578;2023-06-01T12:09:53;101114.31;;;29.83;34.06
3544;BME280;1786;52.870;9.578;2023-06-01T12:12:24;101125.13;;;30.23;34.56
3544;BME280;1786;52.870;9.578;2023-06-01T12:14:52;101121.63;;;29.95;34.02
3544;BME280;1786;52.870;9.578;2023-06-01T12:17:19;101124.47;;;30.40;34.33
3544;BME280;1786;52.870;9.578;2023-06-01T12:19:47;101128.72;;;31.20;33.55
3544;BME280;1786;52.870;9.578;2023-06-01T12:22:15;101123.28;;;31.70;32.92
3544;BME280;1786;52.870;9.578;2023-06-01T12:24:43;101131.97;;;31.35;32.83
3544;BME280;1786;52.870;9.578;2023-06-01T12:27:15;101122.34;;;31.83;32.69
3544;BME280;1786;52.870;9.578;2023-06-01T12:29:44;101121.06;;;31.85;32.15
3544;BME280;1786;52.870;9.578;2023-06-01T12:32:12;101122.94;;;32.47;31.93
3544;BME280;1786;52.870;9.578;2023-06-01T12:34:42;101128.00;;;30.99;32.60
3544;BME280;1786;52.870;9.578;2023-06-01T12:37:17;101126.69;;;31.09;33.05
3544;BME280;1786;52.870;9.578;2023-06-01T12:39:54;101119.19;;;31.29;33.25
3544;BME280;1786;52.870;9.578;2023-06-01T12:42:35;101118.94;;;30.60;33.61
3544;BME280;1786;52.870;9.578;2023-06-01T12:45:07;101124.75;;;30.71;33.55
3544;BME280;1786;52.870;9.578;2023-06-01T12:47:38;101108.22;;;29.47;34.22
3544;BME280;1786;52.870;9.578;2023-06-01T12:50:10;101122.63;;;29.15;35.34
3544;BME280;1786;52.870;9.578;2023-06-01T12:52:39;101121.63;;;29.75;35.10
3544;BME280;1786;52.870;9.578;2023-06-01T12:55:07;101124.53;;;30.01;34.58
3544;BME280;1786;52.870;9.578;2023-06-01T12:57:36;101116.16;;;29.55;35.07
3544;BME280;1786;52.870;9.578;2023-06-01T13:00:05;101117.00;;;30.09;34.52
3544;BME280;1786;52.870;9.578;2023-06-01T13:02:33;101118.25;;;29.60;34.76
3544;BME280;1786;52.870;9.578;2023-06-01T13:05:00;101124.97;;;29.64;35.20
3544;BME280;1786;52.870;9.578;2023-06-01T13:07:27;101119.53;;;29.58;34.80
3544;BME280;1786;52.870;9.578;2023-06-01T13:09:54;101121.00;;;29.73;34.67
3544;BME280;1786;52.870;9.578;2023-06-01T13:12:24;101121.84;;;29.81;34.68
3544;BME280;1786;52.870;9.578;2023-06-01T13:14:51;101127.03;;;30.09;34.73
3544;BME280;1786;52.870;9.578;2023-06-01T13:17:18;101121.81;;;30.07;34.68
3544;BME280;1786;52.870;9.578;2023-06-01T13:19:45;101127.28;;;29.94;34.79
3544;BME280;1786;52.870;9.578;2023-06-01T13:22:12;101113.97;;;28.98;35.71
3544;BME280;1786;52.870;9.578;2023-06-01T13:24:39;101117.16;;;29.08;35.82
3544;BME280;1786;52.870;9.578;2023-06-01T13:27:26;101124.09;;;29.17;35.52
3544;BME280;1786;52.870;9.578;2023-06-01T13:29:52;101120.97;;;28.59;36.95
3544;BME280;1786;52.870;9.578;2023-06-01T13:32:19;101118.66;;;28.56;36.49
3544;BME280;1786;52.870;9.578;2023-06-01T13:34:46;101127.56;;;28.98;36.25
3544;BME280;1786;52.870;9.578;2023-06-01T13:37:13;101119.34;;;28.71;36.26
3544;BME280;1786;52.870;9.578;2023-06-01T13:39:40;101124.41;;;28.87;36.37
3544;BME280;1786;52.870;9.578;2023-06-01T13:42:07;101119.34;;;28.78;36.51
3544;BME280;1786;52.870;9.578;2023-06-01T13:44:34;101112.81;;;28.59;35.97
3544;BME280;1786;52.870;9.578;2023-06-01T13:47:01;101104.94;;;28.36;36.66